createdAt,value
2023-03-26T00:00:38.161Z,952.1680
2023-03-26T00:01:39.501Z,952.1415
2023-03-26T00:02:40.141Z,952.1177
2023-03-26T00:03:41.588Z,952.1122
2023-03-26T00:04:41.662Z,952.1213
2023-03-26T00:06:42.941Z,952.1269
2023-03-26T00:07:42.974Z,952.1241
2023-03-26T00:08:44.215Z,952.1178
2023-03-26T00:09:44.225Z,952.0839
2023-03-26T00:10:45.617Z,952.0631
2023-03-26T00:11:45.612Z,952.0557
2023-03-26T00:12:45.629Z,952.0486
2023-03-26T00:13:46.847Z,952.0322
2023-03-26T00:14:46.881Z,952.0129
2023-03-26T00:15:48.127Z,951.9973
2023-03-26T00:16:48.530Z,951.9847
2023-03-26T00:17:48.566Z,951.9775
2023-03-26T00:18:49.433Z,951.9791
2023-03-26T00:19:50.897Z,951.9862
2023-03-26T00:20:52.021Z,951.9866
2023-03-26T00:22:53.116Z,951.9820
2023-03-26T00:23:53.420Z,951.9802
2023-03-26T00:24:54.638Z,951.9749
2023-03-26T00:25:55.548Z,951.9641
2023-03-26T00:26:55.832Z,951.9525
2023-03-26T00:27:57.048Z,951.9335
2023-03-26T00:28:57.103Z,951.9313
2023-03-26T00:29:58.272Z,951.9424
2023-03-26T00:30:58.534Z,951.9564
2023-03-26T00:31:58.570Z,951.9761
2023-03-26T00:32:58.820Z,951.9854
2023-03-26T00:34:00.083Z,951.9907
2023-03-26T00:35:00.067Z,951.9979
2023-03-26T00:36:05.181Z,952.0031
2023-03-26T00:37:05.139Z,951.9941
2023-03-26T00:38:06.443Z,951.9736
2023-03-26T00:39:06.866Z,951.9539
2023-03-26T00:40:07.231Z,951.9409
2023-03-26T00:41:07.319Z,951.9448
2023-03-26T00:42:07.522Z,951.9521
2023-03-26T00:43:07.635Z,951.9468
2023-03-26T00:44:08.948Z,951.9278
2023-03-26T00:45:08.968Z,951.9109
2023-03-26T00:46:10.353Z,951.9014
2023-03-26T00:47:10.913Z,951.8991
2023-03-26T00:48:11.343Z,951.9057
2023-03-26T00:49:12.054Z,951.9052
2023-03-26T00:50:12.087Z,951.9050
2023-03-26T00:51:13.259Z,951.9051
2023-03-26T00:52:13.267Z,951.9213
2023-03-26T00:53:14.729Z,951.9235
2023-03-26T00:54:14.728Z,951.9052
2023-03-26T00:55:14.746Z,951.8954
2023-03-26T00:56:15.950Z,951.8716
2023-03-26T00:57:34.548Z,951.8456
2023-03-26T00:58:20.599Z,951.8200
2023-03-26T00:59:20.607Z,951.7946
2023-03-26T01:00:22.011Z,951.7798
2023-03-26T01:01:22.043Z,951.7725
2023-03-26T01:02:22.250Z,951.7596
2023-03-26T01:03:27.840Z,951.7522
2023-03-26T01:05:24.364Z,951.7346
2023-03-26T01:06:24.404Z,951.7309
2023-03-26T01:07:25.556Z,951.7269
2023-03-26T01:08:25.610Z,951.7057
2023-03-26T01:09:26.793Z,951.6971
2023-03-26T01:10:28.131Z,951.6829
2023-03-26T01:11:29.438Z,951.6587
2023-03-26T01:12:30.657Z,951.6329
2023-03-26T01:13:30.801Z,951.6177
2023-03-26T01:14:32.007Z,951.6120
2023-03-26T01:15:32.081Z,951.5932
2023-03-26T01:16:32.380Z,951.5652
2023-03-26T01:17:32.487Z,951.5411
2023-03-26T01:18:33.672Z,951.5283
2023-03-26T01:19:33.719Z,951.5688
2023-03-26T01:20:35.117Z,951.5607
2023-03-26T01:21:36.287Z,951.5251
2023-03-26T01:22:37.597Z,951.4889
2023-03-26T01:23:38.885Z,951.4491
2023-03-26T01:24:38.899Z,951.4341
2023-03-26T01:25:40.238Z,951.3980
2023-03-26T01:26:41.410Z,951.3416
2023-03-26T01:29:43.831Z,951.2502
2023-03-26T01:30:43.786Z,951.2477
2023-03-26T01:31:45.113Z,951.2269
2023-03-26T01:32:46.134Z,951.2037
2023-03-26T01:33:46.194Z,951.1998
2023-03-26T01:34:46.254Z,951.1982
2023-03-26T01:35:47.571Z,951.1991
2023-03-26T01:36:47.797Z,951.1979
2023-03-26T01:37:48.989Z,951.1711
2023-03-26T01:38:49.599Z,951.1329
2023-03-26T01:39:51.162Z,951.1006
2023-03-26T01:40:51.786Z,951.0905
2023-03-26T01:41:51.861Z,951.0864
2023-03-26T01:42:53.094Z,951.0682
2023-03-26T01:43:53.076Z,951.0491
2023-03-26T01:44:54.405Z,951.0374
2023-03-26T01:45:55.875Z,951.0211
2023-03-26T01:46:56.481Z,951.0164
2023-03-26T01:47:56.499Z,950.9888
2023-03-26T01:48:56.566Z,950.9429
2023-03-26T01:49:56.644Z,950.9307
2023-03-26T01:50:56.794Z,950.9291
2023-03-26T01:51:58.131Z,950.9260
2023-03-26T01:52:59.355Z,950.9095
2023-03-26T01:53:59.442Z,950.8800
2023-03-26T01:55:00.701Z,950.8765
2023-03-26T01:56:00.745Z,950.8466
2023-03-26T01:57:00.758Z,950.7823
2023-03-26T01:58:00.842Z,950.7148
2023-03-26T01:59:02.024Z,950.6691
2023-03-26T02:00:03.328Z,950.6200
2023-03-26T02:01:03.512Z,950.5327
2023-03-26T02:02:03.711Z,950.4734
2023-03-26T02:03:04.982Z,950.4755
2023-03-26T02:04:05.156Z,950.4962
2023-03-26T02:06:05.681Z,950.4796
2023-03-26T02:07:06.785Z,950.4897
2023-03-26T02:08:07.108Z,950.4891
2023-03-26T02:09:08.350Z,950.4851
2023-03-26T02:10:08.423Z,950.4727
2023-03-26T02:11:09.878Z,950.4568
2023-03-26T02:12:09.895Z,950.3962
2023-03-26T02:13:09.922Z,950.3716
2023-03-26T02:14:11.121Z,950.3720
2023-03-26T02:15:11.165Z,950.3159
2023-03-26T02:16:11.147Z,950.2662
2023-03-26T02:17:11.470Z,950.2789
2023-03-26T02:18:11.569Z,950.2789
2023-03-26T02:19:11.641Z,950.2402
2023-03-26T02:20:12.820Z,950.1947
2023-03-26T02:21:12.881Z,950.1893
2023-03-26T02:22:14.213Z,950.1920
2023-03-26T02:23:15.533Z,950.1620
2023-03-26T02:24:15.632Z,950.1118
2023-03-26T02:25:16.862Z,950.0727
2023-03-26T02:27:17.851Z,950.0591
2023-03-26T02:28:17.889Z,950.0380
2023-03-26T02:29:19.325Z,949.9907
2023-03-26T02:30:20.550Z,949.9480
2023-03-26T02:31:20.636Z,949.8979
2023-03-26T02:32:20.714Z,949.8636
2023-03-26T02:33:21.322Z,949.8568
2023-03-26T02:34:22.599Z,949.8544
2023-03-26T02:35:22.959Z,949.8209
2023-03-26T02:37:23.641Z,949.7409
2023-03-26T02:38:25.093Z,949.7171
2023-03-26T02:39:25.090Z,949.7045
2023-03-26T02:40:25.423Z,949.7109
2023-03-26T02:41:26.644Z,949.7114
2023-03-26T02:42:26.771Z,949.7145
2023-03-26T02:43:27.947Z,949.6953
2023-03-26T02:45:29.323Z,949.6411
2023-03-26T02:46:29.531Z,949.6082
2023-03-26T02:47:29.936Z,949.5803
2023-03-26T02:48:29.912Z,949.5646
2023-03-26T02:49:30.020Z,949.5807
2023-03-26T02:50:30.026Z,949.5884
2023-03-26T02:51:30.549Z,949.5986
2023-03-26T02:52:31.832Z,949.5847
2023-03-26T02:53:32.110Z,949.5789
2023-03-26T02:54:32.061Z,949.5762
2023-03-26T02:55:32.160Z,949.5637
2023-03-26T02:56:33.425Z,949.5416
2023-03-26T02:57:33.702Z,949.5330
2023-03-26T02:58:33.749Z,949.5173
2023-03-26T02:59:33.881Z,949.4946
2023-03-26T03:00:34.121Z,949.4552
2023-03-26T03:01:34.607Z,949.4473
2023-03-26T03:02:34.730Z,949.4338
2023-03-26T03:03:35.440Z,949.3841
2023-03-26T03:04:35.611Z,949.3625
2023-03-26T03:05:35.629Z,949.3518
2023-03-26T03:06:35.738Z,949.3248
2023-03-26T03:07:37.065Z,949.3284
2023-03-26T03:08:37.217Z,949.3216
2023-03-26T03:09:38.512Z,949.2944
2023-03-26T03:10:38.621Z,949.2664
2023-03-26T03:11:39.948Z,949.2451
2023-03-26T03:12:39.994Z,949.2318
2023-03-26T03:13:41.488Z,949.2427
2023-03-26T03:14:42.782Z,949.2622
2023-03-26T03:15:42.958Z,949.2678
2023-03-26T03:16:43.101Z,949.2482
2023-03-26T03:17:43.578Z,949.2236
2023-03-26T03:18:43.662Z,949.2234
2023-03-26T03:19:43.783Z,949.2150
2023-03-26T03:20:43.835Z,949.2318
2023-03-26T03:21:43.991Z,949.2552
2023-03-26T03:22:45.284Z,949.2098
2023-03-26T03:23:45.395Z,949.1507
2023-03-26T03:24:46.683Z,949.0756
2023-03-26T03:25:46.791Z,949.0455
2023-03-26T03:26:47.920Z,949.0411
2023-03-26T03:27:47.876Z,948.9938
2023-03-26T03:28:48.016Z,948.9598
2023-03-26T03:29:49.304Z,948.9647
2023-03-26T03:30:49.551Z,948.9764
2023-03-26T03:31:50.106Z,949.0027
2023-03-26T03:32:50.695Z,949.0300
2023-03-26T03:33:50.845Z,949.0184
2023-03-26T03:34:51.004Z,949.0052
2023-03-26T03:35:51.327Z,949.0041
2023-03-26T03:37:52.740Z,948.9962
2023-03-26T03:38:54.070Z,948.9198
2023-03-26T03:39:54.242Z,948.9259
2023-03-26T03:40:54.253Z,948.9291
2023-03-26T03:42:55.664Z,948.8976
2023-03-26T03:43:55.929Z,948.8887
2023-03-26T03:44:56.100Z,948.8862
2023-03-26T03:45:56.682Z,948.8723
2023-03-26T03:46:57.284Z,948.8398
2023-03-26T03:47:57.674Z,948.8312
2023-03-26T03:48:57.942Z,948.8264
2023-03-26T03:49:59.215Z,948.7860
2023-03-26T03:50:59.523Z,948.7728
2023-03-26T03:51:59.540Z,948.7662
2023-03-26T03:52:59.965Z,948.7616
2023-03-26T03:54:00.002Z,948.7902
2023-03-26T03:55:00.158Z,948.8146
2023-03-26T03:56:00.348Z,948.8602
2023-03-26T03:57:00.770Z,948.8750
2023-03-26T03:58:00.768Z,948.8506
2023-03-26T03:59:00.886Z,948.8430
2023-03-26T04:00:01.684Z,948.8365
2023-03-26T04:01:03.037Z,948.7986
2023-03-26T04:02:03.181Z,948.7820
2023-03-26T04:03:03.695Z,948.7604
2023-03-26T04:04:04.723Z,948.7459
2023-03-26T04:05:04.950Z,948.7457
2023-03-26T04:06:05.169Z,948.7430
2023-03-26T04:07:05.152Z,948.7104
2023-03-26T04:08:05.331Z,948.7116
2023-03-26T04:10:08.095Z,948.6598
2023-03-26T04:11:08.225Z,948.6400
2023-03-26T04:12:08.221Z,948.6287
2023-03-26T04:13:08.318Z,948.5989
2023-03-26T04:14:08.336Z,948.5045
2023-03-26T04:15:08.495Z,948.4171
2023-03-26T04:16:08.637Z,948.3771
2023-03-26T04:17:08.932Z,948.4002
2023-03-26T04:18:09.081Z,948.4398
2023-03-26T04:19:09.240Z,948.4296
2023-03-26T04:20:09.289Z,948.4061
2023-03-26T04:21:09.477Z,948.3887
2023-03-26T04:22:09.481Z,948.3903
2023-03-26T04:23:09.619Z,948.3507
2023-03-26T04:24:10.879Z,948.3098
2023-03-26T04:25:11.474Z,948.3109
2023-03-26T04:26:11.622Z,948.3132
2023-03-26T04:27:11.650Z,948.3036
2023-03-26T04:28:11.817Z,948.2348
2023-03-26T04:29:13.157Z,948.1536
2023-03-26T04:31:14.465Z,948.2038
2023-03-26T04:32:14.950Z,948.3062
2023-03-26T04:33:15.169Z,948.3455
2023-03-26T04:34:15.375Z,948.2145
2023-03-26T04:35:15.353Z,948.0641
2023-03-26T04:36:15.771Z,948.0330
2023-03-26T04:37:15.763Z,948.0200
2023-03-26T04:39:15.836Z,948.0836
2023-03-26T04:40:16.033Z,948.0895
2023-03-26T04:41:16.014Z,948.0934
2023-03-26T04:42:16.119Z,947.9523
2023-03-26T04:43:16.147Z,947.8257
2023-03-26T04:44:16.217Z,947.8509
2023-03-26T04:45:17.507Z,947.9366
2023-03-26T04:46:17.702Z,948.0477
2023-03-26T04:47:17.781Z,948.0775
2023-03-26T04:48:18.444Z,948.0409
2023-03-26T04:49:19.926Z,947.9767
2023-03-26T04:50:21.213Z,948.0371
2023-03-26T04:51:21.428Z,948.0364
2023-03-26T04:52:21.446Z,947.9539
2023-03-26T04:53:22.598Z,947.9484
2023-03-26T04:54:24.094Z,947.9036
2023-03-26T04:55:25.430Z,947.8834
2023-03-26T04:56:25.581Z,947.8784
2023-03-26T04:57:25.731Z,947.8600
2023-03-26T04:58:25.856Z,947.8423
2023-03-26T04:59:25.858Z,947.8207
2023-03-26T05:00:26.023Z,947.7689
2023-03-26T05:01:26.036Z,947.7800
2023-03-26T05:02:26.350Z,947.7830
2023-03-26T05:03:27.002Z,947.7534
2023-03-26T05:04:27.618Z,947.7218
2023-03-26T05:05:27.682Z,947.7029
2023-03-26T05:06:28.525Z,947.7181
2023-03-26T05:07:28.520Z,947.7329
2023-03-26T05:08:28.733Z,947.7347
2023-03-26T05:09:28.709Z,947.7491
2023-03-26T05:10:28.771Z,947.7709
2023-03-26T05:11:29.563Z,947.7898
2023-03-26T05:12:29.697Z,947.7611
2023-03-26T05:13:29.750Z,947.6850
2023-03-26T05:14:30.054Z,947.6218
2023-03-26T05:15:31.582Z,947.5907
2023-03-26T05:16:31.944Z,947.5309
2023-03-26T05:17:32.381Z,947.5300
2023-03-26T05:18:32.537Z,947.5066
2023-03-26T05:19:32.687Z,947.4937
2023-03-26T05:20:32.697Z,947.5250
2023-03-26T05:21:32.834Z,947.4682
2023-03-26T05:23:34.146Z,947.4323
2023-03-26T05:24:34.166Z,947.3904
2023-03-26T05:25:34.353Z,947.3521
2023-03-26T05:26:34.315Z,947.3732
2023-03-26T05:27:34.431Z,947.3723
2023-03-26T05:28:35.722Z,947.3802
2023-03-26T05:29:35.830Z,947.3571
2023-03-26T05:30:36.182Z,947.3687
2023-03-26T05:31:36.613Z,947.3577
2023-03-26T05:32:36.783Z,947.3207
2023-03-26T05:33:36.856Z,947.3389
2023-03-26T05:34:37.162Z,947.3750
2023-03-26T05:35:37.460Z,947.3391
2023-03-26T05:36:37.733Z,947.3104
2023-03-26T05:37:38.010Z,947.3112
2023-03-26T05:38:38.462Z,947.3237
2023-03-26T05:39:38.626Z,947.3354
2023-03-26T05:40:39.067Z,947.3763
2023-03-26T05:41:39.323Z,947.3773
2023-03-26T05:42:39.430Z,947.3332
2023-03-26T05:43:39.702Z,947.3546
2023-03-26T05:44:39.892Z,947.3664
2023-03-26T05:45:40.184Z,947.4039
2023-03-26T05:46:40.487Z,947.3791
2023-03-26T05:47:41.106Z,947.3597
2023-03-26T05:48:41.663Z,947.3354
2023-03-26T05:49:41.744Z,947.3141
2023-03-26T05:50:41.988Z,947.2909
2023-03-26T05:52:42.510Z,947.2761
2023-03-26T05:53:42.583Z,947.2628
2023-03-26T05:55:44.085Z,947.2107
2023-03-26T05:56:44.884Z,947.1927
2023-03-26T05:57:45.185Z,947.1589
2023-03-26T05:58:45.379Z,947.0957
2023-03-26T05:59:45.424Z,947.0609
2023-03-26T06:00:45.682Z,947.0066
2023-03-26T06:01:46.269Z,946.9811
2023-03-26T06:02:46.899Z,946.8878
2023-03-26T06:04:48.173Z,946.7695
2023-03-26T06:05:48.629Z,946.6366
2023-03-26T06:06:48.677Z,946.5200
2023-03-26T06:07:48.967Z,946.5018
2023-03-26T06:08:49.044Z,946.5845
2023-03-26T06:09:50.425Z,946.7031
2023-03-26T06:10:51.071Z,946.7335
2023-03-26T06:11:52.068Z,946.6929
2023-03-26T06:12:52.134Z,946.6403
2023-03-26T06:14:53.640Z,946.6022
2023-03-26T06:15:53.942Z,946.6150
2023-03-26T06:16:54.090Z,946.6251
2023-03-26T06:17:54.296Z,946.6495
2023-03-26T06:18:59.555Z,946.6427
2023-03-26T06:19:59.813Z,946.6238
2023-03-26T06:21:00.301Z,946.5984
2023-03-26T06:22:00.515Z,946.6025
2023-03-26T06:23:00.583Z,946.6086
2023-03-26T06:24:00.809Z,946.6143
2023-03-26T06:25:01.068Z,946.6332
2023-03-26T06:26:01.441Z,946.6518
2023-03-26T06:28:01.626Z,946.6564
2023-03-26T06:29:01.670Z,946.6816
2023-03-26T06:30:01.939Z,946.7409
2023-03-26T06:32:16.179Z,946.7830
2023-03-26T06:33:04.441Z,946.7814
2023-03-26T06:34:04.595Z,946.7462
2023-03-26T06:35:04.724Z,946.7134
2023-03-26T06:36:05.169Z,946.6925
2023-03-26T06:37:05.492Z,946.6707
2023-03-26T06:38:05.614Z,946.6688
2023-03-26T06:39:09.782Z,946.6929
2023-03-26T06:40:09.890Z,946.7004
2023-03-26T06:41:10.575Z,946.7082
2023-03-26T06:42:10.910Z,946.7123
2023-03-26T06:44:12.004Z,946.6746
2023-03-26T06:45:12.112Z,946.6804
2023-03-26T06:46:12.519Z,946.6736
2023-03-26T06:47:12.630Z,946.6813
2023-03-26T06:48:13.063Z,946.7148
2023-03-26T06:50:13.286Z,946.6837
2023-03-26T06:51:13.542Z,946.6987
2023-03-26T06:52:13.736Z,946.6813
2023-03-26T06:53:13.861Z,946.6784
2023-03-26T06:54:14.169Z,946.6200
2023-03-26T06:55:14.247Z,946.5775
2023-03-26T06:56:15.220Z,946.5459
2023-03-26T06:57:15.858Z,946.5316
2023-03-26T06:58:15.975Z,946.4943
2023-03-26T06:59:16.249Z,946.4907
2023-03-26T07:00:16.387Z,946.5195
2023-03-26T07:02:16.670Z,946.4868
2023-03-26T07:03:17.203Z,946.4772
2023-03-26T07:04:18.402Z,946.4616
2023-03-26T07:05:18.887Z,946.4575
2023-03-26T07:06:18.981Z,946.4611
2023-03-26T07:07:19.274Z,946.3970
2023-03-26T07:08:19.941Z,946.3345
2023-03-26T07:09:20.167Z,946.3041
2023-03-26T07:10:20.273Z,946.2864
2023-03-26T07:11:21.138Z,946.3104
2023-03-26T07:12:21.411Z,946.3218
2023-03-26T07:13:21.453Z,946.3380
2023-03-26T07:14:22.561Z,946.3748
2023-03-26T07:17:23.490Z,946.3882
2023-03-26T07:18:23.935Z,946.4059
2023-03-26T07:19:24.024Z,946.3575
2023-03-26T07:20:24.445Z,946.3461
2023-03-26T07:21:24.921Z,946.3394
2023-03-26T07:22:25.153Z,946.3611
2023-03-26T07:23:25.554Z,946.3439
2023-03-26T07:24:25.846Z,946.3511
2023-03-26T07:25:26.000Z,946.3750
2023-03-26T07:26:26.212Z,946.4302
2023-03-26T07:27:26.342Z,946.4495
2023-03-26T07:28:26.752Z,946.4252
2023-03-26T07:29:27.621Z,946.4110
2023-03-26T07:30:27.705Z,946.3368
2023-03-26T07:31:28.064Z,946.2807
2023-03-26T07:32:28.764Z,946.2352
2023-03-26T07:33:29.061Z,946.2484
2023-03-26T07:34:29.237Z,946.2157
2023-03-26T07:35:29.644Z,946.1725
2023-03-26T07:36:29.738Z,946.1852
2023-03-26T07:37:30.023Z,946.1843
2023-03-26T07:38:30.103Z,946.1863
2023-03-26T07:39:31.304Z,946.1716
2023-03-26T07:40:31.597Z,946.1818
2023-03-26T07:41:32.247Z,946.2050
2023-03-26T07:42:32.414Z,946.2125
2023-03-26T07:43:32.636Z,946.1362
2023-03-26T07:44:34.590Z,946.0925
2023-03-26T07:45:33.335Z,946.0750
2023-03-26T07:46:33.709Z,946.1075
2023-03-26T07:47:34.141Z,946.1036
2023-03-26T07:50:35.677Z,946.0247
2023-03-26T07:51:36.363Z,946.0325
2023-03-26T07:52:36.512Z,946.0393
2023-03-26T07:53:36.764Z,946.0618
2023-03-26T07:54:36.924Z,946.0355
2023-03-26T07:55:37.186Z,946.0237
2023-03-26T07:56:37.373Z,946.0237
2023-03-26T07:57:38.369Z,946.0291
2023-03-26T07:58:38.475Z,946.0295
2023-03-26T07:59:38.812Z,946.0143
2023-03-26T08:00:38.944Z,945.9991
2023-03-26T08:01:39.167Z,945.9627
2023-03-26T08:02:39.352Z,945.9546
2023-03-26T08:03:40.436Z,945.9371
2023-03-26T08:04:41.494Z,945.9514
2023-03-26T08:05:42.302Z,945.9909
2023-03-26T08:06:42.549Z,945.9822
2023-03-26T08:07:43.522Z,945.9525
2023-03-26T08:08:43.805Z,945.9307
2023-03-26T08:09:44.107Z,945.9318
2023-03-26T08:10:44.211Z,945.9241
2023-03-26T08:11:44.977Z,945.9036
2023-03-26T08:12:45.222Z,945.8879
2023-03-26T08:13:45.471Z,945.8687
2023-03-26T08:14:45.703Z,945.8654
2023-03-26T08:15:46.203Z,945.8439
2023-03-26T08:18:47.060Z,945.8704
2023-03-26T08:19:47.502Z,945.8672
2023-03-26T08:20:47.717Z,945.8348
2023-03-26T08:21:48.089Z,945.8489
2023-03-26T08:22:48.232Z,945.8887
2023-03-26T08:23:51.963Z,945.8505
2023-03-26T08:25:51.195Z,945.7864
2023-03-26T08:26:51.640Z,945.8179
2023-03-26T08:28:52.074Z,945.8245
2023-03-26T08:29:52.287Z,945.8843
2023-03-26T08:30:53.241Z,945.8588
2023-03-26T08:31:53.242Z,945.8344
2023-03-26T08:32:53.696Z,945.8647
2023-03-26T08:33:53.908Z,945.8796
2023-03-26T08:34:54.322Z,945.8713
2023-03-26T08:35:55.075Z,945.8675
2023-03-26T08:36:55.558Z,945.8927
2023-03-26T08:37:55.756Z,945.8986
2023-03-26T08:38:56.111Z,945.8568
2023-03-26T08:39:56.362Z,945.9116
2023-03-26T08:40:57.372Z,945.8677
2023-03-26T08:41:57.881Z,945.9077
2023-03-26T08:42:58.190Z,945.8200
2023-03-26T08:43:58.548Z,945.8754
2023-03-26T08:44:58.958Z,945.9073
2023-03-26T08:46:59.526Z,945.8546
2023-03-26T08:47:59.990Z,945.7898
2023-03-26T08:49:00.166Z,945.8734
2023-03-26T08:50:00.860Z,945.9641
2023-03-26T08:51:01.728Z,945.8586
2023-03-26T08:52:02.078Z,945.8088
2023-03-26T08:53:02.255Z,945.8091
2023-03-26T08:54:02.567Z,945.8568
2023-03-26T08:55:02.932Z,945.8855
2023-03-26T08:56:03.303Z,945.8531
2023-03-26T08:57:03.712Z,945.8687
2023-03-26T08:58:04.818Z,945.8322
2023-03-26T09:00:05.915Z,945.8407
2023-03-26T09:01:07.041Z,945.8572
2023-03-26T09:02:07.672Z,945.9118
2023-03-26T09:03:08.399Z,945.9411
2023-03-26T09:04:08.817Z,946.0630
2023-03-26T09:05:09.062Z,946.0241
2023-03-26T09:06:09.268Z,945.9313
2023-03-26T09:07:09.561Z,946.0114
2023-03-26T09:08:09.730Z,946.2182
2023-03-26T09:09:18.766Z,946.3292
2023-03-26T09:10:11.662Z,946.2957
2023-03-26T09:11:12.567Z,946.2759
2023-03-26T09:12:12.919Z,946.2198
2023-03-26T09:13:13.389Z,946.3033
2023-03-26T09:15:14.020Z,946.3036
2023-03-26T09:16:14.596Z,946.1989
2023-03-26T09:17:15.073Z,946.1302
2023-03-26T09:18:15.573Z,946.2150
2023-03-26T09:19:15.788Z,946.2959
2023-03-26T09:21:16.809Z,945.9566
2023-03-26T09:22:17.114Z,945.8209
2023-03-26T09:23:17.328Z,945.8464
2023-03-26T09:24:17.715Z,945.8638
2023-03-26T09:25:17.956Z,945.9352
2023-03-26T09:26:18.357Z,946.0204
2023-03-26T09:27:18.523Z,946.0209
2023-03-26T09:28:18.838Z,946.0314
2023-03-26T09:29:18.975Z,945.9886
2023-03-26T09:30:20.014Z,945.9621
2023-03-26T09:31:20.356Z,945.9630
2023-03-26T09:32:21.103Z,945.9954
2023-03-26T09:33:21.476Z,946.0141
2023-03-26T09:34:21.801Z,946.0486
2023-03-26T09:35:21.946Z,946.0786
2023-03-26T09:36:22.630Z,946.1400
2023-03-26T09:37:22.840Z,946.1614
2023-03-26T09:38:23.654Z,946.1566
2023-03-26T09:39:24.025Z,946.1398
2023-03-26T09:40:24.127Z,946.1209
2023-03-26T09:42:25.077Z,946.1238
2023-03-26T09:43:25.402Z,946.1580
2023-03-26T09:44:25.700Z,946.2139
2023-03-26T09:45:25.996Z,946.2509
2023-03-26T09:46:26.471Z,946.2371
2023-03-26T09:47:27.028Z,946.2102
2023-03-26T09:48:27.404Z,946.2325
2023-03-26T09:49:27.810Z,946.2413
2023-03-26T09:50:28.029Z,946.2155
2023-03-26T09:51:28.445Z,946.1626
2023-03-26T09:52:28.668Z,946.1539
2023-03-26T09:53:29.076Z,946.1882
2023-03-26T09:54:29.325Z,946.2359
2023-03-26T09:55:29.804Z,946.2561
2023-03-26T09:56:30.029Z,946.1968
2023-03-26T09:57:30.588Z,946.1659
2023-03-26T09:58:31.181Z,946.1916
2023-03-26T09:59:31.366Z,946.2098
2023-03-26T10:01:32.468Z,946.2009
2023-03-26T10:02:46.672Z,946.1228
2023-03-26T10:03:37.428Z,946.0941
2023-03-26T10:04:38.083Z,946.0652
2023-03-26T10:05:38.851Z,946.0509
2023-03-26T10:06:39.485Z,946.0289
2023-03-26T10:07:40.152Z,946.0414
2023-03-26T10:08:40.605Z,946.0366
2023-03-26T10:10:41.516Z,946.0604
2023-03-26T10:11:42.159Z,946.0528
2023-03-26T10:12:41.760Z,946.0170
2023-03-26T10:14:42.391Z,946.0438
2023-03-26T10:16:42.692Z,946.0868
2023-03-26T10:17:43.341Z,946.0612
2023-03-26T10:19:44.514Z,946.0679
2023-03-26T10:20:44.988Z,946.0627
2023-03-26T10:21:45.869Z,946.0688
2023-03-26T10:22:46.206Z,946.0666
2023-03-26T10:23:46.678Z,946.0668
2023-03-26T10:24:46.965Z,946.0609
2023-03-26T10:25:47.404Z,946.0532
2023-03-26T10:27:09.208Z,946.0239
2023-03-26T10:27:48.674Z,946.0316
2023-03-26T10:28:49.179Z,946.0257
2023-03-26T10:29:49.763Z,946.0289
2023-03-26T10:30:50.388Z,946.0166
2023-03-26T10:31:51.163Z,945.9836
2023-03-26T10:33:51.653Z,945.9923
2023-03-26T10:34:52.782Z,945.9879
2023-03-26T10:35:53.414Z,946.0121
2023-03-26T10:36:54.114Z,946.0164
2023-03-26T10:37:54.184Z,946.0128
2023-03-26T10:38:54.725Z,946.0348
2023-03-26T10:39:55.636Z,946.0165
2023-03-26T10:40:56.287Z,946.0441
2023-03-26T10:41:56.052Z,946.1046
2023-03-26T10:42:56.343Z,946.0563
2023-03-26T10:44:07.525Z,946.0588
2023-03-26T10:44:57.075Z,946.0546
2023-03-26T10:45:57.777Z,946.0041
2023-03-26T10:46:58.342Z,945.9982
2023-03-26T10:47:59.047Z,946.0007
2023-03-26T10:48:59.469Z,946.0136
2023-03-26T10:50:00.409Z,946.0773
2023-03-26T10:51:01.666Z,946.0858
2023-03-26T10:52:02.333Z,946.0359
2023-03-26T10:53:03.202Z,946.0013
2023-03-26T10:54:04.333Z,945.9756
2023-03-26T10:55:05.376Z,945.9938
2023-03-26T10:56:06.053Z,945.9568
2023-03-26T10:57:07.123Z,945.9616
2023-03-26T10:58:08.005Z,945.9191
2023-03-26T10:59:08.409Z,945.9721
2023-03-26T11:00:09.448Z,945.9127
2023-03-26T11:01:09.957Z,945.9039
2023-03-26T11:02:11.083Z,945.9114
2023-03-26T11:06:13.490Z,945.9191
2023-03-26T11:07:14.507Z,945.9648
2023-03-26T11:08:14.869Z,946.0195
2023-03-26T11:09:15.324Z,946.0320
2023-03-26T11:10:15.808Z,945.9766
2023-03-26T11:11:16.379Z,946.0109
2023-03-26T11:12:26.738Z,946.0365
2023-03-26T11:13:18.337Z,945.9689
2023-03-26T11:14:33.784Z,945.9938
2023-03-26T11:15:22.372Z,945.9605
2023-03-26T11:16:23.170Z,946.0021
2023-03-26T11:17:40.627Z,945.9938
2023-03-26T11:18:24.423Z,945.9191
2023-03-26T11:19:24.972Z,945.9296
2023-03-26T11:22:26.834Z,945.9682
2023-03-26T11:23:27.758Z,945.9102
2023-03-26T11:24:28.732Z,945.8978
2023-03-26T11:25:29.165Z,945.9117
2023-03-26T11:26:29.644Z,945.9334
2023-03-26T11:27:29.698Z,945.9547
2023-03-26T11:28:30.176Z,945.9120
2023-03-26T11:29:33.636Z,945.8622
2023-03-26T11:31:32.359Z,945.8179
2023-03-26T11:32:33.124Z,945.7677
2023-03-26T11:33:33.561Z,945.7620
2023-03-26T11:34:34.754Z,945.8022
2023-03-26T11:35:41.756Z,945.8234
2023-03-26T11:37:41.017Z,945.8225
2023-03-26T11:38:41.573Z,945.7941
2023-03-26T11:39:41.979Z,945.7769
2023-03-26T11:40:42.652Z,945.7575
2023-03-26T11:41:43.075Z,945.7397
2023-03-26T11:42:43.795Z,945.7500
2023-03-26T11:43:44.197Z,945.6759
2023-03-26T11:44:44.814Z,945.6373
2023-03-26T11:45:45.306Z,945.5900
2023-03-26T11:46:45.738Z,945.6089
2023-03-26T11:47:46.657Z,945.5932
2023-03-26T11:48:47.143Z,945.6147
2023-03-26T11:49:47.575Z,945.5620
2023-03-26T11:50:48.009Z,945.5286
2023-03-26T11:51:48.896Z,945.5057
2023-03-26T11:53:49.418Z,945.3875
2023-03-26T11:54:49.987Z,945.3713
2023-03-26T11:55:50.256Z,945.3741
2023-03-26T11:57:06.021Z,945.4069
2023-03-26T11:57:54.342Z,945.4744
2023-03-26T11:58:54.847Z,945.4595
2023-03-26T11:59:59.968Z,945.4328
2023-03-26T12:01:00.766Z,945.4177
2023-03-26T12:02:01.320Z,945.3873
2023-03-26T12:03:01.555Z,945.4102
2023-03-26T12:04:02.036Z,945.3889
2023-03-26T12:05:03.397Z,945.3741
2023-03-26T12:06:04.354Z,945.3511
2023-03-26T12:07:04.686Z,945.3254
2023-03-26T12:08:05.415Z,945.2795
2023-03-26T12:09:05.778Z,945.2584
2023-03-26T12:10:18.280Z,945.1929
2023-03-26T12:11:11.865Z,945.1508
2023-03-26T12:12:13.045Z,945.1393
2023-03-26T12:13:13.640Z,945.1486
2023-03-26T12:14:14.005Z,945.1402
2023-03-26T12:15:14.543Z,945.1953
2023-03-26T12:16:14.958Z,945.2307
2023-03-26T12:17:15.730Z,945.2762
2023-03-26T12:18:16.863Z,945.2388
2023-03-26T12:19:17.330Z,945.2143
2023-03-26T12:20:17.902Z,945.1702
2023-03-26T12:21:18.521Z,945.1096
2023-03-26T12:22:19.233Z,945.0841
2023-03-26T12:23:19.627Z,945.0525
2023-03-26T12:24:20.251Z,944.9550
2023-03-26T12:25:20.645Z,944.9002
2023-03-26T12:26:21.247Z,944.8884
2023-03-26T12:27:21.632Z,944.9114
2023-03-26T12:28:22.143Z,944.9432
2023-03-26T12:29:22.732Z,945.0186
2023-03-26T12:30:23.401Z,945.0179
2023-03-26T12:31:23.923Z,945.0582
2023-03-26T12:32:32.439Z,945.1677
2023-03-26T12:33:25.349Z,945.2180
2023-03-26T12:34:25.466Z,945.1263
2023-03-26T12:36:26.831Z,945.0902
2023-03-26T12:37:27.387Z,945.0955
2023-03-26T12:38:27.904Z,945.0414
2023-03-26T12:40:30.702Z,944.8597
2023-03-26T12:44:44.672Z,944.8339
2023-03-26T12:44:50.756Z,944.7303
2023-03-26T12:44:52.690Z,944.7826
2023-03-26T12:45:00.519Z,944.7159